createdAt,value
2022-08-14T00:00:26.319Z,10.60
2022-08-14T00:03:29.172Z,8.60
2022-08-14T00:06:13.895Z,8.60
2022-08-14T00:09:00.161Z,10.60
2022-08-14T00:11:34.095Z,11.60
2022-08-14T00:14:08.319Z,8.70
2022-08-14T00:16:45.506Z,9.30
2022-08-14T00:19:21.296Z,11.00
2022-08-14T00:21:56.131Z,11.10
2022-08-14T00:24:31.194Z,9.70
2022-08-14T00:27:05.555Z,14.60
2022-08-14T00:29:42.941Z,12.10
2022-08-14T00:32:50.534Z,11.40
2022-08-14T00:35:13.722Z,11.30
2022-08-14T00:37:49.436Z,12.00
2022-08-14T00:40:33.582Z,12.80
2022-08-14T00:43:09.844Z,13.80
2022-08-14T00:45:52.522Z,11.70
2022-08-14T00:48:34.761Z,15.00
2022-08-14T00:51:12.931Z,11.40
2022-08-14T00:53:50.333Z,11.10
2022-08-14T00:56:31.228Z,11.40
2022-08-14T00:59:05.424Z,10.60
2022-08-14T01:01:41.284Z,12.60
2022-08-14T01:04:51.618Z,12.60
2022-08-14T01:07:10.770Z,13.70
2022-08-14T01:09:45.485Z,12.30
2022-08-14T01:12:27.178Z,12.30
2022-08-14T01:15:05.520Z,12.20
2022-08-14T01:18:00.991Z,12.10
2022-08-14T01:20:53.277Z,12.40
2022-08-14T01:23:27.953Z,12.90
2022-08-14T01:26:23.533Z,12.10
2022-08-14T01:29:22.156Z,12.70
2022-08-14T01:32:05.704Z,13.80
2022-08-14T01:35:17.178Z,13.20
2022-08-14T01:37:44.105Z,12.20
2022-08-14T01:40:19.900Z,12.10
2022-08-14T01:42:54.126Z,13.00
2022-08-14T01:45:31.334Z,13.30
2022-08-14T01:48:16.231Z,14.80
2022-08-14T01:50:55.482Z,14.30
2022-08-14T01:53:33.475Z,16.70
2022-08-14T01:56:12.102Z,13.10
2022-08-14T01:58:57.196Z,14.50
2022-08-14T02:01:32.300Z,14.10
2022-08-14T02:04:41.029Z,16.10
2022-08-14T02:07:05.528Z,16.40
2022-08-14T02:09:40.221Z,13.80
2022-08-14T02:12:19.632Z,15.90
2022-08-14T02:15:01.508Z,13.30
2022-08-14T02:17:37.922Z,17.50
2022-08-14T02:20:14.115Z,13.80
2022-08-14T02:22:48.955Z,15.30
2022-08-14T02:25:22.639Z,13.10
2022-08-14T02:28:24.969Z,14.30
2022-08-14T02:30:53.554Z,14.90
2022-08-14T02:33:29.520Z,15.00
2022-08-14T02:37:05.323Z,14.80
2022-08-14T02:39:02.360Z,14.30
2022-08-14T02:41:38.915Z,16.00
2022-08-14T02:44:15.383Z,15.60
2022-08-14T02:47:03.602Z,15.20
2022-08-14T02:49:42.699Z,16.10
2022-08-14T02:52:56.220Z,16.30
2022-08-14T02:55:15.534Z,17.10
2022-08-14T02:57:58.133Z,21.10
2022-08-14T03:00:39.916Z,15.40
2022-08-14T03:03:16.589Z,16.50
2022-08-14T03:05:51.532Z,18.80
2022-08-14T03:08:32.211Z,16.70
2022-08-14T03:11:09.439Z,17.30
2022-08-14T03:13:47.433Z,17.00
2022-08-14T03:16:26.832Z,17.30
2022-08-14T03:19:01.193Z,17.20
2022-08-14T03:21:36.562Z,15.80
2022-08-14T03:24:21.416Z,17.80
2022-08-14T03:26:57.679Z,18.20
2022-08-14T03:29:31.994Z,15.00
2022-08-14T03:32:08.053Z,15.90
2022-08-14T03:34:55.311Z,15.40
2022-08-14T03:39:08.329Z,12.40
2022-08-14T03:40:25.231Z,12.10
2022-08-14T03:42:59.178Z,13.10
2022-08-14T03:45:35.864Z,15.20
2022-08-14T03:48:30.603Z,10.20
2022-08-14T03:51:06.546Z,10.80
2022-08-14T03:53:45.428Z,12.70
2022-08-14T03:56:21.332Z,10.30
2022-08-14T03:59:00.234Z,8.60
2022-08-14T04:01:39.112Z,10.30
2022-08-14T04:04:19.701Z,10.70
2022-08-14T04:06:53.505Z,12.60
2022-08-14T04:09:32.762Z,13.10
2022-08-14T04:12:08.438Z,14.60
2022-08-14T04:14:47.449Z,11.80
2022-08-14T04:17:26.298Z,12.80
2022-08-14T04:20:06.850Z,12.90
2022-08-14T04:22:44.098Z,14.10
2022-08-14T04:25:19.756Z,17.00
2022-08-14T04:28:02.451Z,14.10
2022-08-14T04:30:42.195Z,14.40
2022-08-14T04:33:20.697Z,13.20
2022-08-14T04:35:56.501Z,13.70
2022-08-14T04:38:48.856Z,12.00
2022-08-14T04:41:37.070Z,12.20
2022-08-14T04:44:13.439Z,13.50
2022-08-14T04:47:18.261Z,11.90
2022-08-14T04:49:57.281Z,12.60
2022-08-14T04:52:32.335Z,11.80
2022-08-14T04:55:14.734Z,13.00
2022-08-14T04:57:49.214Z,16.50
2022-08-14T05:00:23.659Z,13.50
2022-08-14T05:02:59.579Z,15.10
2022-08-14T05:05:35.435Z,13.00
2022-08-14T05:08:50.493Z,15.50
2022-08-14T05:11:12.006Z,13.20
2022-08-14T05:14:16.971Z,12.70
2022-08-14T05:16:41.438Z,12.70
2022-08-14T05:19:18.079Z,15.10
2022-08-14T05:22:16.433Z,14.30
2022-08-14T05:24:53.299Z,11.50
2022-08-14T05:27:31.045Z,13.70
2022-08-14T05:30:10.495Z,12.30
2022-08-14T05:32:46.794Z,14.00
2022-08-14T05:35:21.723Z,13.50
2022-08-14T05:37:55.782Z,12.50
2022-08-14T05:40:29.835Z,12.00
2022-08-14T05:43:06.747Z,13.90
2022-08-14T05:45:42.995Z,11.30
2022-08-14T05:48:23.393Z,13.30
2022-08-14T05:51:08.322Z,14.40
2022-08-14T05:53:44.115Z,13.50
2022-08-14T05:56:36.936Z,14.40
2022-08-14T05:59:12.391Z,15.30
2022-08-14T06:01:46.768Z,13.40
2022-08-14T06:04:24.389Z,13.30
2022-08-14T06:06:58.923Z,12.20
2022-08-14T06:09:35.685Z,12.30
2022-08-14T06:12:14.859Z,13.20
2022-08-14T06:15:12.700Z,11.90
2022-08-14T06:17:58.653Z,17.10
2022-08-14T06:20:34.446Z,12.30
2022-08-14T06:23:09.153Z,14.20
2022-08-14T06:25:44.824Z,14.00
2022-08-14T06:28:28.602Z,15.00
2022-08-14T06:31:02.652Z,14.20
2022-08-14T06:35:11.300Z,12.70
2022-08-14T06:36:30.765Z,14.40
2022-08-14T06:39:04.788Z,15.90
2022-08-14T06:41:59.356Z,14.70
2022-08-14T06:44:34.236Z,12.90
2022-08-14T06:47:09.154Z,15.30
2022-08-14T06:49:48.658Z,15.00
2022-08-14T06:52:32.655Z,13.00
2022-08-14T06:55:07.620Z,14.70
2022-08-14T06:57:46.003Z,13.60
2022-08-14T07:00:27.224Z,13.80
2022-08-14T07:03:25.994Z,11.30
2022-08-14T07:06:00.193Z,12.30
2022-08-14T07:08:35.374Z,12.00
2022-08-14T07:11:11.296Z,16.40
2022-08-14T07:13:46.618Z,12.50
2022-08-14T07:16:29.350Z,12.50
2022-08-14T07:19:12.566Z,14.10
2022-08-14T07:21:50.923Z,12.60
2022-08-14T07:24:32.924Z,11.90
2022-08-14T07:27:14.744Z,11.80
2022-08-14T07:29:58.060Z,11.60
2022-08-14T07:32:33.988Z,13.20
2022-08-14T07:35:10.060Z,11.20
2022-08-14T07:37:44.834Z,9.80
2022-08-14T07:40:22.211Z,10.60
2022-08-14T07:43:14.523Z,10.10
2022-08-14T07:45:50.786Z,10.30
2022-08-14T07:48:28.038Z,9.40
2022-08-14T07:51:03.797Z,10.70
2022-08-14T07:53:45.851Z,12.00
2022-08-14T07:56:43.928Z,11.80
2022-08-14T07:59:17.385Z,10.80
2022-08-14T08:01:53.718Z,10.30
2022-08-14T08:04:34.895Z,9.80
2022-08-14T08:07:12.810Z,10.70
2022-08-14T08:09:55.043Z,8.80
2022-08-14T08:12:32.640Z,9.20
2022-08-14T08:15:09.465Z,9.20
2022-08-14T08:17:53.875Z,9.70
2022-08-14T08:20:38.726Z,8.70
2022-08-14T08:23:13.511Z,9.80
2022-08-14T08:25:58.681Z,9.20
2022-08-14T08:28:34.300Z,8.20
2022-08-14T08:31:12.344Z,8.60
2022-08-14T08:33:52.427Z,7.30
2022-08-14T08:36:29.953Z,10.80
2022-08-14T08:39:14.512Z,8.10
2022-08-14T08:41:53.801Z,9.60
2022-08-14T08:44:34.399Z,9.60
2022-08-14T08:47:09.473Z,8.20
2022-08-14T08:49:52.817Z,10.00
2022-08-14T08:52:34.770Z,11.90
2022-08-14T08:55:11.037Z,10.10
2022-08-14T08:57:47.462Z,9.00
2022-08-14T09:00:25.850Z,9.10
2022-08-14T09:03:04.734Z,10.10
2022-08-14T09:05:50.767Z,9.70
2022-08-14T09:08:33.220Z,9.70
2022-08-14T09:11:19.857Z,11.70
2022-08-14T09:13:57.313Z,9.40
2022-08-14T09:16:32.249Z,9.00
2022-08-14T09:19:07.345Z,10.10
2022-08-14T09:21:43.378Z,9.10
2022-08-14T09:24:28.245Z,8.40
2022-08-14T09:27:07.116Z,8.10
2022-08-14T09:29:42.152Z,10.90
2022-08-14T09:32:59.020Z,8.70
2022-08-14T09:35:39.072Z,11.10
2022-08-14T09:38:29.433Z,7.90
2022-08-14T09:41:19.926Z,9.00
2022-08-14T09:44:07.714Z,10.10
2022-08-14T09:46:42.287Z,9.50
2022-08-14T09:49:40.013Z,8.40
2022-08-14T09:52:23.825Z,13.70
2022-08-14T09:55:22.611Z,8.40
2022-08-14T09:58:15.107Z,9.80
2022-08-14T10:00:59.489Z,8.30
2022-08-14T10:03:36.892Z,8.40
2022-08-14T10:06:19.393Z,10.70
2022-08-14T10:09:00.933Z,9.70
2022-08-14T10:11:43.428Z,17.90
2022-08-14T10:14:36.347Z,15.80
2022-08-14T10:17:38.950Z,10.90
2022-08-14T10:20:40.548Z,14.90
2022-08-14T10:23:20.325Z,14.10
2022-08-14T10:26:06.504Z,10.60
2022-08-14T10:29:18.557Z,12.20
2022-08-14T10:31:45.724Z,11.70
2022-08-14T10:34:29.045Z,13.20
2022-08-14T10:37:14.854Z,11.50
2022-08-14T10:40:05.362Z,11.80
2022-08-14T10:42:47.253Z,12.30
2022-08-14T10:45:26.220Z,11.30
2022-08-14T10:48:07.911Z,11.40
2022-08-14T10:50:54.326Z,10.00
2022-08-14T10:53:40.258Z,11.30
2022-08-14T10:56:21.379Z,10.30
2022-08-14T10:59:10.926Z,11.70
2022-08-14T11:01:45.397Z,10.10
2022-08-14T11:04:30.852Z,9.60
2022-08-14T11:07:21.391Z,11.60
2022-08-14T11:10:02.826Z,11.40
2022-08-14T11:13:01.701Z,12.70
2022-08-14T11:15:41.101Z,14.20
2022-08-14T11:18:20.340Z,12.60
2022-08-14T11:21:05.557Z,12.20
2022-08-14T11:23:46.079Z,9.30
2022-08-14T11:26:24.737Z,9.00
2022-08-14T11:29:05.964Z,7.00
2022-08-14T11:31:44.020Z,7.30
2022-08-14T11:34:32.499Z,7.20
2022-08-14T11:37:18.731Z,8.00
2022-08-14T11:40:02.186Z,7.10
2022-08-14T11:43:06.225Z,7.20
2022-08-14T11:45:37.188Z,6.60
2022-08-14T11:49:03.015Z,6.70
2022-08-14T11:51:24.491Z,7.70
2022-08-14T11:54:08.256Z,5.30
2022-08-14T11:56:46.105Z,6.70
2022-08-14T11:59:26.512Z,5.70
2022-08-14T12:03:01.162Z,6.00
2022-08-14T12:05:12.613Z,6.60
2022-08-14T12:07:55.062Z,6.50
2022-08-14T12:10:42.522Z,6.80
2022-08-14T12:13:22.376Z,10.10
2022-08-14T12:16:20.335Z,8.40
2022-08-14T12:19:00.979Z,7.10
2022-08-14T12:21:36.445Z,9.20
2022-08-14T12:24:36.849Z,7.50
2022-08-14T12:27:08.156Z,7.40
2022-08-14T12:29:54.274Z,7.40
2022-08-14T12:32:28.530Z,6.30
2022-08-14T12:35:02.946Z,6.40
2022-08-14T12:37:37.828Z,5.90
2022-08-14T12:40:23.092Z,5.20
2022-08-14T12:43:03.296Z,7.80
2022-08-14T12:45:39.040Z,8.80
2022-08-14T12:48:21.279Z,9.30
2022-08-14T12:51:18.198Z,8.10
2022-08-14T12:53:59.480Z,7.30
2022-08-14T12:56:39.159Z,9.30
2022-08-14T12:59:20.585Z,8.50
2022-08-14T13:02:07.546Z,10.70
2022-08-14T13:04:51.984Z,9.30
2022-08-14T13:07:32.055Z,12.20
2022-08-14T13:10:46.145Z,13.20
2022-08-14T13:13:15.485Z,13.20
2022-08-14T13:15:56.301Z,14.00
2022-08-14T13:18:37.803Z,12.50
2022-08-14T13:21:16.705Z,12.50
2022-08-14T13:23:51.728Z,12.10
2022-08-14T13:26:29.515Z,12.20
2022-08-14T13:29:10.518Z,13.60
2022-08-14T13:31:53.710Z,12.90
2022-08-14T13:34:31.573Z,11.70
2022-08-14T13:37:07.732Z,10.90
2022-08-14T13:39:47.479Z,12.00
2022-08-14T13:42:32.751Z,10.40
2022-08-14T13:45:11.498Z,12.70
2022-08-14T13:47:46.973Z,10.70
2022-08-14T13:50:21.699Z,12.20
2022-08-14T13:53:01.423Z,10.80
2022-08-14T13:55:38.895Z,10.40
2022-08-14T13:58:33.651Z,10.50
2022-08-14T14:01:10.234Z,9.80
2022-08-14T14:03:47.359Z,11.30
2022-08-14T14:06:27.304Z,13.50
2022-08-14T14:09:06.753Z,9.90
2022-08-14T14:11:52.817Z,12.20
2022-08-14T14:14:50.806Z,9.60
2022-08-14T14:17:25.723Z,8.90
2022-08-14T14:20:07.664Z,9.00
2022-08-14T14:23:01.299Z,9.00
2022-08-14T14:25:49.192Z,9.00
2022-08-14T14:28:35.490Z,8.10
2022-08-14T14:31:14.613Z,8.10
2022-08-14T14:33:50.735Z,8.60
2022-08-14T14:36:29.235Z,10.80
2022-08-14T14:39:06.458Z,8.80
2022-08-14T14:41:44.972Z,8.30
2022-08-14T14:44:23.906Z,10.90
2022-08-14T14:47:00.921Z,9.20
2022-08-14T14:49:51.458Z,9.40
2022-08-14T14:52:30.118Z,9.40
2022-08-14T14:55:16.919Z,10.00
2022-08-14T14:57:54.959Z,9.20
2022-08-14T15:00:31.095Z,9.20
2022-08-14T15:03:06.598Z,11.50
2022-08-14T15:05:41.600Z,10.00
2022-08-14T15:08:16.917Z,9.00
2022-08-14T15:10:51.227Z,8.80
2022-08-14T15:13:27.397Z,8.20
2022-08-14T15:16:09.028Z,9.10
2022-08-14T15:18:48.977Z,11.20
2022-08-14T15:21:23.342Z,7.50
2022-08-14T15:23:58.377Z,7.60
2022-08-14T15:26:32.567Z,7.30
2022-08-14T15:29:10.839Z,8.50
2022-08-14T15:31:45.910Z,6.90
2022-08-14T15:34:45.443Z,7.00
2022-08-14T15:37:16.713Z,6.60
2022-08-14T15:39:52.563Z,7.10
2022-08-14T15:42:30.436Z,6.40
2022-08-14T15:45:05.801Z,7.10
2022-08-14T15:47:41.763Z,5.80
2022-08-14T15:50:17.212Z,7.20
2022-08-14T15:52:54.449Z,8.60
2022-08-14T15:55:31.066Z,7.50
2022-08-14T15:58:08.148Z,5.60
2022-08-14T16:01:06.175Z,6.00
2022-08-14T16:03:42.434Z,10.90
2022-08-14T16:06:23.001Z,5.90
2022-08-14T16:09:03.435Z,7.70
2022-08-14T16:11:50.739Z,6.50
2022-08-14T16:14:31.039Z,6.20
2022-08-14T16:17:07.655Z,5.80
2022-08-14T16:19:46.845Z,6.10
2022-08-14T16:22:58.294Z,6.00
2022-08-14T16:25:18.188Z,5.30
2022-08-14T16:27:55.349Z,6.40
2022-08-14T16:30:29.751Z,6.60
2022-08-14T16:33:07.002Z,5.10
2022-08-14T16:35:55.709Z,4.20
2022-08-14T16:38:46.101Z,4.90
2022-08-14T16:41:27.716Z,4.60
2022-08-14T16:44:21.922Z,4.80
2022-08-14T16:47:09.700Z,4.90
2022-08-14T16:50:02.835Z,5.10
2022-08-14T16:52:44.904Z,6.90
2022-08-14T16:55:29.959Z,4.80
2022-08-14T16:58:08.949Z,4.50
2022-08-14T17:00:45.111Z,4.60
2022-08-14T17:03:19.640Z,4.80
2022-08-14T17:05:55.895Z,4.60
2022-08-14T17:08:46.921Z,5.20
2022-08-14T17:11:21.425Z,6.10
2022-08-14T17:14:02.833Z,6.50
2022-08-14T17:16:39.152Z,5.90
2022-08-14T17:19:17.757Z,5.30
2022-08-14T17:21:55.110Z,6.30
2022-08-14T17:24:58.142Z,6.30
2022-08-14T17:27:25.908Z,6.70
2022-08-14T17:30:00.250Z,6.30
2022-08-14T17:32:55.713Z,7.80
2022-08-14T17:35:57.663Z,6.40
2022-08-14T17:38:38.758Z,6.70
2022-08-14T17:41:32.989Z,8.60
2022-08-14T17:44:34.388Z,8.00
2022-08-14T17:47:20.434Z,7.90
2022-08-14T17:49:55.844Z,6.90
2022-08-14T17:52:40.834Z,7.40
2022-08-14T17:56:01.273Z,8.10
2022-08-14T17:58:20.691Z,7.20
2022-08-14T18:01:04.681Z,7.40
2022-08-14T18:03:50.149Z,8.00
2022-08-14T18:06:39.903Z,8.60
2022-08-14T18:09:26.151Z,7.80
2022-08-14T18:12:03.793Z,7.90
2022-08-14T18:14:48.312Z,7.20
2022-08-14T18:17:26.658Z,7.00
2022-08-14T18:20:15.877Z,7.00
2022-08-14T18:22:57.399Z,7.90
2022-08-14T18:25:35.997Z,7.70
2022-08-14T18:28:18.209Z,8.90
2022-08-14T18:31:42.214Z,8.50
2022-08-14T18:34:30.785Z,8.30
2022-08-14T18:37:20.287Z,7.50
2022-08-14T18:40:03.600Z,7.20
2022-08-14T18:42:51.194Z,9.50
2022-08-14T18:45:28.712Z,7.60
2022-08-14T18:48:50.084Z,8.30
2022-08-14T18:51:45.647Z,9.50
2022-08-14T18:54:38.854Z,8.90
2022-08-14T18:57:13.305Z,10.10
2022-08-14T18:59:54.749Z,8.10
2022-08-14T19:02:47.288Z,6.60
2022-08-14T19:06:04.424Z,11.00
2022-08-14T19:08:45.549Z,10.30
2022-08-14T19:11:51.637Z,8.70
2022-08-14T19:14:50.500Z,8.30
2022-08-14T19:18:10.516Z,9.70
2022-08-14T19:20:58.162Z,7.40
2022-08-14T19:23:40.565Z,9.50
2022-08-14T19:26:53.915Z,8.10
2022-08-14T19:29:37.861Z,8.00
2022-08-14T19:32:41.591Z,8.70
2022-08-14T19:35:56.040Z,7.40
2022-08-14T19:38:59.703Z,8.10
2022-08-14T19:41:37.975Z,11.30
2022-08-14T19:44:20.683Z,8.10
2022-08-14T19:47:11.512Z,8.50
2022-08-14T19:50:30.412Z,9.20
2022-08-14T19:52:45.997Z,9.10
2022-08-14T19:55:34.049Z,8.20
2022-08-14T19:58:14.701Z,8.00
2022-08-14T20:01:08.498Z,7.60
2022-08-14T20:04:00.611Z,13.10
2022-08-14T20:06:46.738Z,9.30
2022-08-14T20:11:03.251Z,8.50
2022-08-14T20:12:28.678Z,8.30
2022-08-14T20:15:17.989Z,7.60
2022-08-14T20:17:55.652Z,6.50
2022-08-14T20:20:32.783Z,7.40
2022-08-14T20:23:19.051Z,7.20
2022-08-14T20:25:57.159Z,7.80
2022-08-14T20:28:35.836Z,10.20
2022-08-14T20:31:22.160Z,7.80
2022-08-14T20:34:24.809Z,10.90
2022-08-14T20:37:12.945Z,7.60
2022-08-14T20:39:54.239Z,9.00
2022-08-14T20:42:50.389Z,10.30
2022-08-14T20:45:27.368Z,9.90
2022-08-14T20:48:09.100Z,10.00
2022-08-14T20:50:45.307Z,7.20
2022-08-14T20:53:37.708Z,7.50
2022-08-14T20:56:28.499Z,7.00
2022-08-14T20:59:18.080Z,7.30
2022-08-14T21:01:55.602Z,5.50
2022-08-14T21:04:36.916Z,6.50
2022-08-14T21:07:36.025Z,5.20
2022-08-14T21:10:33.226Z,6.80
2022-08-14T21:13:27.882Z,5.90
2022-08-14T21:16:34.215Z,7.10
2022-08-14T21:19:05.236Z,6.50
2022-08-14T21:21:42.458Z,7.70
2022-08-14T21:24:38.483Z,8.50
2022-08-14T21:27:21.727Z,7.30
2022-08-14T21:29:57.951Z,7.90
2022-08-14T21:32:50.438Z,7.00
2022-08-14T21:35:32.123Z,7.20
2022-08-14T21:38:18.464Z,9.00
2022-08-14T21:40:56.342Z,11.50
2022-08-14T21:43:33.340Z,10.80
2022-08-14T21:46:07.308Z,10.70
2022-08-14T21:48:44.415Z,12.60
2022-08-14T21:51:54.720Z,11.60
2022-08-14T21:54:30.438Z,10.30
2022-08-14T21:57:13.483Z,12.60
2022-08-14T21:59:49.495Z,13.10
2022-08-14T22:02:32.791Z,14.10
2022-08-14T22:05:08.254Z,11.70
2022-08-14T22:07:45.114Z,11.70
2022-08-14T22:10:24.272Z,11.40
2022-08-14T22:13:00.624Z,14.80
2022-08-14T22:15:37.084Z,12.60
2022-08-14T22:18:20.178Z,14.00
2022-08-14T22:20:56.880Z,12.40
2022-08-14T22:23:31.058Z,13.50
2022-08-14T22:26:06.682Z,13.00
2022-08-14T22:28:44.717Z,14.00
2022-08-14T22:31:24.093Z,12.40
2022-08-14T22:33:58.310Z,14.50
2022-08-14T22:36:48.733Z,11.40
2022-08-14T22:40:17.733Z,11.20
2022-08-14T22:42:23.033Z,13.00
2022-08-14T22:44:57.556Z,12.00
2022-08-14T22:47:40.365Z,15.90
2022-08-14T22:50:29.071Z,12.30
2022-08-14T22:53:08.390Z,11.30
2022-08-14T22:55:44.144Z,11.30
2022-08-14T22:58:18.952Z,10.80
2022-08-14T23:00:55.196Z,13.00
2022-08-14T23:03:34.220Z,13.80
2022-08-14T23:07:02.850Z,12.00
2022-08-14T23:09:36.705Z,10.30
2022-08-14T23:11:59.053Z,13.40
2022-08-14T23:14:35.054Z,12.00
2022-08-14T23:17:12.036Z,11.40
2022-08-14T23:19:46.859Z,11.40
2022-08-14T23:22:21.687Z,10.40
2022-08-14T23:24:57.941Z,11.50
2022-08-14T23:28:03.456Z,11.80
2022-08-14T23:30:31.782Z,14.40
2022-08-14T23:33:15.691Z,12.60
2022-08-14T23:35:59.190Z,11.60
2022-08-14T23:38:34.031Z,12.30
2022-08-14T23:41:14.742Z,14.20
2022-08-14T23:43:54.819Z,10.60
2022-08-14T23:46:34.737Z,11.20
2022-08-14T23:49:09.326Z,12.20
2022-08-14T23:51:46.487Z,12.60
2022-08-14T23:54:49.021Z,12.50
2022-08-14T23:57:23.893Z,11.80
